Time;durP1;ratioP1;P1;durP2;ratioP2;P2;SDS_P1;SDS_P2;PMS_P1;PMS_P2;Temp;Humidity;BMP_temperature;BMP_pressure;BME280_temperature;BME280_humidity;BME280_pressure;Samples;Min_cycle;Max_cycle;Signal;HPM_P1;HPM_P2
2023/08/05 00:00:43;;;;;;;7.27;4.63;;;13.40;99.90;;;;;;2078344;28;20236;-66
2023/08/05 00:01:44;;;;;;;6.40;4.80;;;13.30;99.90;;;;;;2087522;28;20223;-65
2023/08/05 00:02:44;;;;;;;7.10;4.57;;;13.30;99.90;;;;;;2079976;28;20347;-64
2023/08/05 00:03:45;;;;;;;5.10;4.37;;;13.30;99.90;;;;;;2080973;28;20621;-65
2023/08/05 00:04:46;;;;;;;5.63;4.23;;;13.30;99.90;;;;;;2080499;28;20294;-65
2023/08/05 00:05:46;;;;;;;5.37;3.97;;;13.30;99.90;;;;;;2082822;28;20225;-66
2023/08/05 00:06:47;;;;;;;8.57;4.97;;;13.40;99.90;;;;;;2066206;28;20617;-65
2023/08/05 00:07:50;;;;;;;7.43;4.33;;;13.30;99.90;;;;;;2062199;28;20365;-65
2023/08/05 00:08:51;;;;;;;7.25;4.47;;;13.20;99.90;;;;;;2078277;28;20228;-66
2023/08/05 00:09:52;;;;;;;6.83;4.57;;;13.30;99.90;;;;;;2078045;28;20582;-65
2023/08/05 00:10:53;;;;;;;6.83;4.20;;;13.20;99.90;;;;;;2078024;28;20327;-66
2023/08/05 00:11:54;;;;;;;7.05;4.88;;;13.30;99.90;;;;;;2083002;28;20299;-64
2023/08/05 00:12:54;;;;;;;6.40;4.17;;;13.30;99.90;;;;;;2087229;28;20223;-66
2023/08/05 00:13:55;;;;;;;10.17;4.83;;;13.30;99.90;;;;;;2088450;28;20226;-65
2023/08/05 00:14:56;;;;;;;4.80;4.27;;;13.40;99.90;;;;;;2084963;28;20209;-67
2023/08/05 00:15:57;;;;;;;8.10;4.75;;;13.40;99.90;;;;;;2090113;28;20208;-66
2023/08/05 00:16:58;;;;;;;8.73;5.10;;;13.50;99.90;;;;;;2090721;28;20230;-65
2023/08/05 00:17:59;;;;;;;5.80;4.30;;;13.50;99.90;;;;;;2089000;28;20211;-65
2023/08/05 00:19:00;;;;;;;7.63;4.60;;;13.50;99.90;;;;;;2086592;28;20297;-65
2023/08/05 00:20:01;;;;;;;7.37;5.00;;;13.50;99.90;;;;;;2087326;28;20180;-65
2023/08/05 00:21:02;;;;;;;6.53;4.05;;;13.40;99.90;;;;;;2094475;28;20183;-66
2023/08/05 00:22:03;;;;;;;6.23;4.37;;;13.30;99.90;;;;;;2086609;28;20671;-65
2023/08/05 00:23:03;;;;;;;8.57;4.80;;;13.30;99.90;;;;;;2077822;28;20215;-65
2023/08/05 00:24:04;;;;;;;7.67;5.13;;;13.30;99.90;;;;;;2079990;28;20648;-65
2023/08/05 00:25:05;;;;;;;8.87;5.13;;;13.30;99.90;;;;;;2091606;28;20180;-65
2023/08/05 00:26:06;;;;;;;7.38;5.15;;;13.30;99.90;;;;;;2087979;28;20180;-65
2023/08/05 00:27:07;;;;;;;8.97;4.80;;;13.40;99.90;;;;;;2093132;28;20639;-65
2023/08/05 00:28:08;;;;;;;9.93;5.63;;;13.40;99.90;;;;;;2087452;28;20180;-65
2023/08/05 00:29:09;;;;;;;8.93;5.43;;;13.50;99.90;;;;;;2086123;28;20279;-65
2023/08/05 00:30:10;;;;;;;7.07;4.80;;;13.50;99.90;;;;;;2087146;28;20185;-65
2023/08/05 00:31:11;;;;;;;8.98;5.53;;;13.50;99.90;;;;;;2084260;28;20591;-65
2023/08/05 00:32:12;;;;;;;8.33;4.87;;;13.40;99.90;;;;;;2070034;28;20186;-65
2023/08/05 00:33:12;;;;;;;6.73;5.17;;;13.40;99.90;;;;;;2069658;28;20185;-65
2023/08/05 00:34:13;;;;;;;8.00;5.40;;;13.40;99.90;;;;;;2071090;28;20236;-65
2023/08/05 00:35:14;;;;;;;9.93;6.10;;;13.40;99.90;;;;;;2071331;28;20188;-65
2023/08/05 00:36:15;;;;;;;9.23;6.63;;;13.20;99.90;;;;;;2064466;28;20266;-65
2023/08/05 00:37:15;;;;;;;10.05;5.75;;;13.10;99.90;;;;;;2080874;28;20294;-65
2023/08/05 00:38:16;;;;;;;8.20;5.97;;;13.10;99.90;;;;;;2083376;28;20268;-65
2023/08/05 00:39:18;;;;;;;7.43;5.03;;;12.90;99.90;;;;;;2061583;28;20683;-65
2023/08/05 00:40:18;;;;;;;10.55;5.50;;;13.00;99.90;;;;;;2070042;28;20236;-65
2023/08/05 00:41:19;;;;;;;6.20;5.07;;;12.90;99.90;;;;;;2078090;28;20294;-64
2023/08/05 00:42:20;;;;;;;7.63;5.13;;;12.90;99.90;;;;;;2081038;28;20786;-65
2023/08/05 00:43:21;;;;;;;6.23;5.23;;;12.80;99.90;;;;;;2075663;28;20258;-65
2023/08/05 00:44:21;;;;;;;7.20;5.00;;;12.80;99.90;;;;;;2081938;28;20231;-64
2023/08/05 00:45:22;;;;;;;8.30;5.40;;;12.90;99.90;;;;;;2086592;28;20231;-64
2023/08/05 00:46:23;;;;;;;8.93;5.50;;;12.90;99.90;;;;;;2096329;28;20242;-65
2023/08/05 00:47:24;;;;;;;8.87;5.40;;;12.80;99.90;;;;;;2098981;28;20235;-64
2023/08/05 00:48:26;;;;;;;8.27;5.40;;;12.90;99.90;;;;;;2094903;28;20618;-64
2023/08/05 00:49:27;;;;;;;10.35;5.50;;;12.90;99.90;;;;;;2081851;28;21024;-65
2023/08/05 00:50:31;;;;;;;6.37;4.80;;;12.80;99.90;;;;;;2056771;28;20701;-65
2023/08/05 00:51:32;;;;;;;8.80;5.70;;;12.80;99.90;;;;;;2064179;28;20226;-65
2023/08/05 00:52:33;;;;;;;9.23;5.97;;;12.80;99.90;;;;;;2079629;28;20228;-65
2023/08/05 00:53:36;;;;;;;9.00;5.38;;;12.80;99.90;;;;;;2078267;28;20229;-65
2023/08/05 00:54:38;;;;;;;7.32;4.78;;;12.80;99.90;;;;;;2070345;28;20240;-65
2023/08/05 00:55:40;;;;;;;9.40;5.65;;;12.70;99.90;;;;;;2071899;28;20299;-64
2023/08/05 00:56:42;;;;;;;9.20;5.03;;;12.70;99.90;;;;;;2077185;28;20302;-65
2023/08/05 00:57:43;;;;;;;10.90;5.70;;;12.90;99.90;;;;;;2065394;28;20237;-65
2023/08/05 00:58:44;;;;;;;8.00;5.03;;;12.80;99.90;;;;;;2062042;28;20225;-65
2023/08/05 00:59:45;;;;;;;10.68;5.63;;;12.90;99.90;;;;;;2067805;28;20221;-65
2023/08/05 01:00:46;;;;;;;8.93;5.87;;;12.90;99.90;;;;;;2077977;28;20224;-64
2023/08/05 01:01:46;;;;;;;7.50;5.23;;;12.80;99.90;;;;;;2077350;28;20727;-65
2023/08/05 01:02:47;;;;;;;8.57;4.90;;;12.80;99.90;;;;;;2069371;28;20256;-65
2023/08/05 01:03:48;;;;;;;9.17;4.83;;;12.90;99.90;;;;;;2077957;28;20224;-65
2023/08/05 01:04:49;;;;;;;11.13;4.90;;;12.90;99.90;;;;;;2083557;28;20623;-65
2023/08/05 01:05:52;;;;;;;11.40;5.28;;;12.90;99.90;;;;;;2077556;28;20228;-65
2023/08/05 01:06:54;;;;;;;9.02;5.35;;;12.90;99.90;;;;;;2076585;28;20220;-65
2023/08/05 01:07:55;;;;;;;6.85;4.70;;;13.00;99.90;;;;;;2069636;28;20577;-66
2023/08/05 01:08:57;;;;;;;6.10;4.20;;;13.00;99.90;;;;;;2068716;28;20834;-67
2023/08/05 01:09:58;;;;;;;8.85;5.55;;;13.10;99.90;;;;;;2078327;28;20575;-65
2023/08/05 01:11:01;;;;;;;6.65;4.85;;;13.10;99.90;;;;;;2085877;28;20200;-65
2023/08/05 01:12:01;;;;;;;9.35;4.68;;;13.10;99.90;;;;;;2067718;28;20209;-66
2023/08/05 01:13:02;;;;;;;7.70;5.27;;;13.10;99.90;;;;;;2061425;28;20240;-66
2023/08/05 01:14:04;;;;;;;7.97;5.07;;;12.90;99.90;;;;;;2077951;28;20189;-66
2023/08/05 01:15:05;;;;;;;8.25;5.15;;;12.90;99.90;;;;;;2078227;28;20781;-65
2023/08/05 01:16:06;;;;;;;8.80;4.78;;;12.80;99.90;;;;;;2077208;28;20191;-66
2023/08/05 01:17:07;;;;;;;10.53;4.73;;;12.60;99.90;;;;;;2080010;28;20558;-65
2023/08/05 01:18:09;;;;;;;6.93;4.67;;;12.70;99.90;;;;;;2069300;28;20264;-66
2023/08/05 01:19:23;;;;;;;6.60;4.22;;;12.70;99.90;;;;;;2061440;28;20175;-66
2023/08/05 01:20:32;;;;;;;6.68;5.03;;;12.80;99.90;;;;;;2064878;28;20226;-65
2023/08/05 01:21:45;;;;;;;9.40;5.22;;;12.70;99.90;;;;;;2074154;28;20263;-66
2023/08/05 01:22:53;;;;;;;8.40;5.15;;;12.60;99.90;;;;;;2068891;28;20501;-65
2023/08/05 01:24:21;;;;;;;7.35;4.75;;;12.50;99.90;;;;;;2071066;28;20355;-66
2023/08/05 01:25:33;;;;;;;9.07;5.28;;;12.40;99.90;;;;;;2053494;28;20700;-66
2023/08/05 01:26:34;;;;;;;8.00;5.03;;;12.30;99.90;;;;;;2070491;28;20312;-67
2023/08/05 01:27:37;;;;;;;6.65;5.00;;;12.20;99.90;;;;;;2076271;28;20280;-66
2023/08/05 01:28:38;;;;;;;7.03;4.60;;;12.30;99.90;;;;;;2076322;28;20281;-64
2023/08/05 01:29:39;;;;;;;6.60;4.73;;;12.40;99.90;;;;;;2076607;28;20294;-64
2023/08/05 01:30:41;;;;;;;9.00;4.80;;;12.40;99.90;;;;;;2081626;28;20255;-64
2023/08/05 01:31:45;;;;;;;6.90;4.85;;;12.50;99.90;;;;;;2065102;28;20321;-64
2023/08/05 01:32:46;;;;;;;7.03;4.97;;;12.50;99.90;;;;;;2062365;28;20232;-64
2023/08/05 01:33:47;;;;;;;7.50;4.70;;;12.50;99.90;;;;;;2077956;28;20641;-64
2023/08/05 01:34:49;;;;;;;7.00;4.97;;;12.50;99.90;;;;;;2074552;28;20228;-64
2023/08/05 01:35:50;;;;;;;7.15;4.80;;;12.50;99.90;;;;;;2069249;28;20735;-63
2023/08/05 01:36:50;;;;;;;8.17;4.80;;;12.60;99.90;;;;;;2075586;28;20229;-66
2023/08/05 01:37:51;;;;;;;7.00;5.27;;;12.60;99.90;;;;;;2076479;28;20239;-65
2023/08/05 01:38:53;;;;;;;6.03;4.50;;;12.50;99.90;;;;;;2074103;28;20251;-65
2023/08/05 01:39:54;;;;;;;10.07;5.40;;;12.60;99.90;;;;;;2069707;28;20300;-65
2023/08/05 01:40:55;;;;;;;8.18;5.10;;;12.60;99.90;;;;;;2069014;28;20229;-65
2023/08/05 01:41:55;;;;;;;7.93;5.03;;;12.60;99.90;;;;;;2081433;28;20231;-66
2023/08/05 01:42:57;;;;;;;7.63;5.33;;;12.50;99.90;;;;;;2084974;28;20188;-66
2023/08/05 01:43:58;;;;;;;6.75;4.78;;;12.60;99.90;;;;;;2077812;28;20260;-66
2023/08/05 01:44:58;;;;;;;9.73;5.30;;;12.60;99.90;;;;;;2082546;28;20215;-65
2023/08/05 01:45:59;;;;;;;7.80;5.40;;;12.40;99.90;;;;;;2077096;28;20184;-65
2023/08/05 01:47:00;;;;;;;11.17;6.33;;;12.40;99.90;;;;;;2077636;28;20989;-65
2023/08/05 01:48:01;;;;;;;8.70;5.50;;;12.30;99.90;;;;;;2085326;28;20691;-65
2023/08/05 01:49:01;;;;;;;7.73;5.50;;;12.30;99.90;;;;;;2082893;28;20226;-65
2023/08/05 01:50:03;;;;;;;7.80;5.38;;;12.30;99.90;;;;;;2081637;28;20245;-65
2023/08/05 01:51:03;;;;;;;7.15;5.10;;;12.30;99.90;;;;;;2069571;28;20297;-66
2023/08/05 01:52:05;;;;;;;7.17;4.63;;;12.40;99.90;;;;;;2069663;28;20190;-66
2023/08/05 01:53:05;;;;;;;10.00;5.80;;;12.40;99.90;;;;;;2077109;28;20539;-65
2023/08/05 01:54:06;;;;;;;10.03;4.80;;;12.50;99.90;;;;;;2077384;28;20264;-66
2023/08/05 01:55:07;;;;;;;7.40;5.13;;;12.40;99.90;;;;;;2078804;28;20634;-65
2023/08/05 01:56:07;;;;;;;10.63;6.00;;;12.40;99.90;;;;;;2081582;28;20189;-66
2023/08/05 01:57:08;;;;;;;9.00;5.00;;;12.40;99.90;;;;;;2086980;28;20307;-65
2023/08/05 01:58:09;;;;;;;10.33;5.63;;;12.40;99.90;;;;;;2083577;28;20291;-66
2023/08/05 01:59:10;;;;;;;9.27;6.57;;;12.40;99.90;;;;;;2084394;28;20195;-66
2023/08/05 02:00:11;;;;;;;7.90;5.40;;;12.30;99.90;;;;;;2084017;28;20681;-65
2023/08/05 02:01:11;;;;;;;6.78;4.95;;;12.20;99.90;;;;;;2078563;28;20563;-66
2023/08/05 02:02:12;;;;;;;5.73;4.37;;;12.20;99.90;;;;;;2062388;28;20191;-66
2023/08/05 02:03:13;;;;;;;8.10;5.27;;;12.30;99.90;;;;;;2060435;28;20186;-66
2023/08/05 02:04:14;;;;;;;8.47;5.17;;;12.20;99.90;;;;;;2079061;28;20173;-66
2023/08/05 02:05:15;;;;;;;7.05;4.82;;;12.30;99.90;;;;;;2067700;28;20639;-66
2023/08/05 02:06:15;;;;;;;7.20;5.27;;;12.30;99.90;;;;;;2066767;28;20242;-66
2023/08/05 02:07:16;;;;;;;8.07;5.27;;;12.40;99.90;;;;;;2070511;28;20229;-66
2023/08/05 02:08:17;;;;;;;8.33;4.90;;;12.50;99.90;;;;;;2081839;28;20239;-65
2023/08/05 02:09:17;;;;;;;11.00;5.63;;;12.50;99.90;;;;;;2082171;28;20232;-66
2023/08/05 02:10:18;;;;;;;8.03;5.40;;;12.50;99.90;;;;;;2086981;28;20262;-67
2023/08/05 02:11:19;;;;;;;8.73;5.27;;;12.50;99.90;;;;;;2087505;28;20801;-66
2023/08/05 02:12:20;;;;;;;9.83;5.90;;;12.40;99.90;;;;;;2092622;28;20733;-66
2023/08/05 02:13:20;;;;;;;8.13;5.43;;;12.40;99.90;;;;;;2081014;28;20233;-65
2023/08/05 02:14:21;;;;;;;10.33;5.63;;;12.40;99.90;;;;;;2089207;28;20265;-66
2023/08/05 02:15:22;;;;;;;9.67;6.10;;;12.40;99.90;;;;;;2093381;28;20361;-66
2023/08/05 02:16:23;;;;;;;10.27;5.27;;;12.40;99.90;;;;;;2085686;28;20710;-66
2023/08/05 02:17:24;;;;;;;7.70;6.00;;;12.50;99.90;;;;;;2081183;28;20249;-65
2023/08/05 02:18:25;;;;;;;8.57;5.80;;;12.50;99.90;;;;;;2087393;28;20710;-66
2023/08/05 02:19:25;;;;;;;8.23;5.40;;;12.60;99.90;;;;;;2092084;28;20234;-66
2023/08/05 02:20:26;;;;;;;7.53;5.20;;;12.60;99.90;;;;;;2089576;28;20590;-66
2023/08/05 02:21:27;;;;;;;9.03;5.87;;;12.60;99.90;;;;;;2087017;28;20251;-65
2023/08/05 02:22:27;;;;;;;8.03;5.60;;;12.50;99.90;;;;;;2085062;28;20262;-65
2023/08/05 02:23:28;;;;;;;10.47;5.63;;;12.50;99.90;;;;;;2089430;28;20261;-65
2023/08/05 02:24:29;;;;;;;6.83;5.17;;;12.50;99.90;;;;;;2086342;28;20593;-67
2023/08/05 02:25:29;;;;;;;7.40;5.37;;;12.50;99.90;;;;;;2077352;28;20271;-66
2023/08/05 02:26:30;;;;;;;7.47;4.90;;;12.60;99.90;;;;;;2079289;28;21144;-65
2023/08/05 02:27:31;;;;;;;7.40;5.27;;;12.70;99.90;;;;;;2090500;28;20377;-65
2023/08/05 02:28:31;;;;;;;6.77;4.73;;;12.80;99.90;;;;;;2094506;28;20719;-66
2023/08/05 02:29:32;;;;;;;7.47;5.67;;;12.90;99.90;;;;;;2080351;28;20228;-65
2023/08/05 02:30:33;;;;;;;7.93;5.30;;;12.90;99.90;;;;;;2079669;28;20227;-65
2023/08/05 02:31:34;;;;;;;9.17;5.67;;;12.80;99.90;;;;;;2086394;28;20235;-65
2023/08/05 02:32:34;;;;;;;7.13;5.03;;;12.70;99.90;;;;;;2078469;28;20240;-65
2023/08/05 02:33:35;;;;;;;8.30;5.97;;;12.70;99.90;;;;;;2089843;28;20250;-65
2023/08/05 02:34:36;;;;;;;9.47;5.97;;;12.70;99.90;;;;;;2094132;28;20238;-65
2023/08/05 02:35:36;;;;;;;8.73;5.63;;;12.70;99.90;;;;;;2080584;28;20257;-66
2023/08/05 02:36:37;;;;;;;7.20;5.30;;;12.60;99.90;;;;;;2082969;28;20231;-66
2023/08/05 02:37:38;;;;;;;7.37;5.80;;;12.60;99.90;;;;;;2084862;28;20258;-65
2023/08/05 02:38:38;;;;;;;10.30;5.53;;;12.60;99.90;;;;;;2079877;28;20220;-66
2023/08/05 02:39:40;;;;;;;10.43;5.17;;;12.60;99.90;;;;;;2078515;28;20236;-66
2023/08/05 02:40:41;;;;;;;6.68;4.80;;;12.80;99.90;;;;;;2070001;28;20692;-65
2023/08/05 02:41:41;;;;;;;7.77;5.13;;;12.70;99.90;;;;;;2078988;28;20304;-66
2023/08/05 02:42:45;;;;;;;8.57;4.80;;;12.60;99.90;;;;;;2093904;28;20242;-65
2023/08/05 02:43:45;;;;;;;5.50;4.50;;;12.60;99.90;;;;;;2079164;28;20544;-65
2023/08/05 02:44:46;;;;;;;7.87;5.07;;;12.60;99.90;;;;;;2080249;28;20230;-65
2023/08/05 02:45:57;;;;;;;8.07;4.83;;;12.60;99.90;;;;;;2092109;28;20704;-66
2023/08/05 02:46:58;;;;;;;7.13;5.13;;;12.70;99.90;;;;;;2090594;28;20219;-66
2023/08/05 02:47:59;;;;;;;6.33;4.80;;;12.70;99.90;;;;;;2086673;28;20287;-66
2023/08/05 02:48:59;;;;;;;9.90;5.72;;;12.70;99.90;;;;;;2086864;28;20896;-67
2023/08/05 02:50:00;;;;;;;7.93;5.37;;;12.70;99.90;;;;;;2092467;28;20194;-66
2023/08/05 02:51:12;;;;;;;8.13;4.93;;;12.60;99.90;;;;;;2092409;28;20277;-68
2023/08/05 02:52:13;;;;;;;9.30;5.63;;;12.60;99.90;;;;;;2082306;28;20200;-66
2023/08/05 02:53:14;;;;;;;6.30;5.20;;;12.60;99.90;;;;;;2094061;28;20339;-65
2023/08/05 02:54:16;;;;;;;9.57;5.37;;;12.60;99.90;;;;;;2088554;28;20187;-67
2023/08/05 02:55:17;;;;;;;11.13;6.00;;;12.50;99.90;;;;;;2082872;28;20263;-67
2023/08/05 02:56:18;;;;;;;8.70;5.20;;;12.40;99.90;;;;;;2091818;28;20779;-65
2023/08/05 02:57:18;;;;;;;7.67;5.70;;;12.40;99.90;;;;;;2094255;28;20235;-65
2023/08/05 02:58:19;;;;;;;8.23;4.80;;;12.40;99.90;;;;;;2090206;28;20698;-65
2023/08/05 02:59:20;;;;;;;8.43;5.77;;;12.40;99.90;;;;;;2084981;28;20288;-66
2023/08/05 03:00:21;;;;;;;7.60;5.20;;;12.40;99.90;;;;;;2081456;28;20233;-66
2023/08/05 03:01:21;;;;;;;10.13;5.53;;;12.40;99.90;;;;;;2069831;28;20229;-66
2023/08/05 03:02:22;;;;;;;9.50;5.93;;;12.30;99.90;;;;;;2070293;28;20226;-65
2023/08/05 03:03:23;;;;;;;8.60;5.37;;;12.40;99.90;;;;;;2078982;28;20632;-65
2023/08/05 03:04:23;;;;;;;10.70;5.87;;;12.50;99.90;;;;;;2080353;28;20702;-66
2023/08/05 03:05:24;;;;;;;9.33;5.67;;;12.30;99.90;;;;;;2078282;28;20291;-66
2023/08/05 03:06:25;;;;;;;8.30;5.83;;;12.40;99.90;;;;;;2074781;28;20714;-66
2023/08/05 03:07:26;;;;;;;8.53;5.53;;;12.40;99.90;;;;;;2077673;28;20311;-66
2023/08/05 03:08:26;;;;;;;7.33;5.07;;;12.30;99.90;;;;;;2076406;28;20233;-66
2023/08/05 03:09:27;;;;;;;7.70;5.80;;;12.30;99.90;;;;;;2069711;28;20722;-66
2023/08/05 03:10:28;;;;;;;6.97;5.07;;;12.30;99.90;;;;;;2070349;28;20229;-66
2023/08/05 03:11:31;;;;;;;7.57;5.30;;;12.40;99.90;;;;;;2078706;28;20232;-66
2023/08/05 03:12:32;;;;;;;10.18;6.13;;;12.30;99.90;;;;;;2078455;28;20244;-64
2023/08/05 03:13:32;;;;;;;10.97;6.00;;;12.30;99.90;;;;;;2075750;28;20732;-66
2023/08/05 03:14:34;;;;;;;7.73;5.47;;;12.30;99.90;;;;;;2072420;28;20229;-65
2023/08/05 03:15:35;;;;;;;9.40;6.05;;;12.20;99.90;;;;;;2064298;28;20230;-66
2023/08/05 03:16:37;;;;;;;10.33;6.37;;;12.20;99.90;;;;;;2070135;28;20233;-66
2023/08/05 03:17:37;;;;;;;10.35;6.82;;;12.10;99.90;;;;;;2070180;28;20348;-66
2023/08/05 03:18:38;;;;;;;7.90;6.03;;;12.00;99.90;;;;;;2070112;28;20652;-65
2023/08/05 03:19:39;;;;;;;10.97;6.70;;;12.00;99.90;;;;;;2070522;28;20275;-65
2023/08/05 03:20:41;;;;;;;10.50;6.60;;;11.90;99.90;;;;;;2083313;28;20216;-65
2023/08/05 03:21:42;;;;;;;11.68;6.72;;;11.80;99.90;;;;;;2087509;28;20728;-65
2023/08/05 03:22:42;;;;;;;12.23;6.67;;;11.80;99.90;;;;;;2089615;28;20234;-66
2023/08/05 03:23:43;;;;;;;9.23;5.83;;;11.80;99.90;;;;;;2084798;28;20692;-66
2023/08/05 03:24:44;;;;;;;9.33;6.70;;;11.80;99.90;;;;;;2084948;28;20315;-65
2023/08/05 03:25:44;;;;;;;9.67;6.73;;;11.80;99.90;;;;;;2078848;28;20220;-65
2023/08/05 03:26:45;;;;;;;7.53;6.03;;;11.80;99.90;;;;;;2075699;28;20653;-65
2023/08/05 03:27:46;;;;;;;10.43;6.00;;;12.00;99.90;;;;;;2077991;28;20232;-65
2023/08/05 03:28:46;;;;;;;10.10;6.70;;;12.10;99.90;;;;;;2076894;28;20781;-66
2023/08/05 03:29:47;;;;;;;8.43;6.10;;;12.20;99.90;;;;;;2086411;28;20223;-65
2023/08/05 03:30:48;;;;;;;10.32;6.63;;;12.20;99.90;;;;;;2086456;28;20247;-66
2023/08/05 03:31:49;;;;;;;12.03;6.97;;;12.20;99.90;;;;;;2083689;28;20248;-65
2023/08/05 03:32:50;;;;;;;9.63;6.87;;;12.20;99.90;;;;;;2084626;28;20235;-65
2023/08/05 03:33:50;;;;;;;9.30;6.73;;;12.30;99.90;;;;;;2086263;28;20263;-65
2023/08/05 03:34:51;;;;;;;12.43;7.37;;;12.40;99.90;;;;;;2090697;28;20310;-65
2023/08/05 03:35:52;;;;;;;8.87;6.67;;;12.30;99.90;;;;;;2088273;28;20590;-66
2023/08/05 03:36:53;;;;;;;12.05;7.45;;;12.30;99.90;;;;;;2082068;28;20236;-65
2023/08/05 03:37:54;;;;;;;11.07;7.10;;;12.30;99.90;;;;;;2082975;28;20228;-65
2023/08/05 03:38:56;;;;;;;12.20;6.77;;;12.30;99.90;;;;;;2085886;28;20251;-65
2023/08/05 03:39:57;;;;;;;11.55;6.70;;;12.50;99.90;;;;;;2075065;28;20631;-66
2023/08/05 03:41:05;;;;;;;8.82;6.53;;;12.50;99.90;;;;;;2078132;28;20714;-66
2023/08/05 03:42:06;;;;;;;8.90;6.90;;;12.60;99.90;;;;;;2073628;28;20189;-66
2023/08/05 03:43:07;;;;;;;9.53;6.37;;;12.60;99.90;;;;;;2079161;28;20283;-66
2023/08/05 03:44:08;;;;;;;11.67;6.70;;;12.80;99.90;;;;;;2076703;28;20194;-66
2023/08/05 03:45:09;;;;;;;13.25;6.90;;;12.80;99.90;;;;;;2065242;28;20189;-66
2023/08/05 03:46:10;;;;;;;11.15;6.97;;;12.90;99.90;;;;;;2090775;28;20679;-65
2023/08/05 03:47:12;;;;;;;11.60;6.53;;;12.80;99.90;;;;;;2093290;28;20179;-66
2023/08/05 03:48:12;;;;;;;10.57;7.28;;;12.60;99.90;;;;;;2093366;28;20304;-66
2023/08/05 03:49:13;;;;;;;9.73;6.23;;;12.60;99.90;;;;;;2087713;28;20208;-65
2023/08/05 03:50:14;;;;;;;9.67;6.50;;;12.50;99.90;;;;;;2089532;28;20186;-65
2023/08/05 03:51:15;;;;;;;9.67;6.27;;;12.50;99.90;;;;;;2086181;28;20287;-65
2023/08/05 03:52:16;;;;;;;11.05;6.50;;;12.60;99.90;;;;;;2085056;28;20270;-66
2023/08/05 03:53:17;;;;;;;11.40;6.87;;;12.50;99.90;;;;;;2089377;28;20717;-66
2023/08/05 03:54:17;;;;;;;11.47;8.00;;;12.40;99.90;;;;;;2082135;28;20609;-66
2023/08/05 03:55:19;;;;;;;10.17;7.23;;;12.50;99.90;;;;;;2088265;28;20323;-66
2023/08/05 03:56:22;;;;;;;10.65;7.32;;;12.50;99.90;;;;;;2072188;28;20976;-65
2023/08/05 03:57:22;;;;;;;10.75;7.93;;;12.50;99.90;;;;;;2081193;28;20270;-65
2023/08/05 03:58:23;;;;;;;8.77;7.47;;;12.60;99.90;;;;;;2087938;28;20382;-66
2023/08/05 03:59:24;;;;;;;8.97;7.10;;;12.60;99.90;;;;;;2089181;28;20716;-65
2023/08/05 04:00:24;;;;;;;11.30;7.37;;;12.60;99.90;;;;;;2090202;28;20725;-65
2023/08/05 04:01:26;;;;;;;13.07;7.43;;;12.60;99.90;;;;;;2092200;28;20228;-65
2023/08/05 04:02:29;;;;;;;8.60;6.57;;;12.60;99.90;;;;;;2094605;28;20300;-65
2023/08/05 04:03:30;;;;;;;10.52;7.15;;;12.60;99.90;;;;;;2088858;28;20574;-64
2023/08/05 04:04:31;;;;;;;11.10;7.97;;;12.60;99.90;;;;;;2087267;28;20694;-64
2023/08/05 04:05:32;;;;;;;10.57;8.10;;;12.70;99.90;;;;;;2080970;28;20221;-64
2023/08/05 04:06:33;;;;;;;10.80;7.83;;;12.70;99.90;;;;;;2084340;28;20656;-64
2023/08/05 04:07:34;;;;;;;10.53;7.00;;;12.70;99.90;;;;;;2094523;28;20674;-65
2023/08/05 04:08:34;;;;;;;8.97;6.80;;;12.70;99.90;;;;;;2085007;28;20220;-65
2023/08/05 04:09:37;;;;;;;10.73;7.57;;;12.70;99.90;;;;;;2083108;28;20255;-65
2023/08/05 04:10:39;;;;;;;11.00;7.10;;;12.60;99.90;;;;;;2083714;28;20250;-65
2023/08/05 04:11:39;;;;;;;10.32;7.95;;;12.50;99.90;;;;;;2083478;28;20714;-65
2023/08/05 04:12:40;;;;;;;11.23;8.27;;;12.40;99.90;;;;;;2076615;28;20313;-65
2023/08/05 04:13:44;;;;;;;10.63;7.30;;;12.40;99.90;;;;;;2082270;28;20231;-65
2023/08/05 04:14:45;;;;;;;9.85;7.40;;;12.30;99.90;;;;;;2070120;28;20478;-64
2023/08/05 04:15:46;;;;;;;11.17;7.23;;;12.30;99.90;;;;;;2083037;28;20251;-64
2023/08/05 04:16:51;;;;;;;11.77;7.55;;;12.30;99.90;;;;;;2076659;28;20655;-64
2023/08/05 04:17:54;;;;;;;11.15;7.63;;;12.30;99.90;;;;;;2071019;28;20729;-65
2023/08/05 04:18:54;;;;;;;10.48;7.72;;;12.20;99.90;;;;;;2075506;28;20743;-64
2023/08/05 04:19:55;;;;;;;10.00;7.53;;;12.20;99.90;;;;;;2077127;28;20228;-65
2023/08/05 04:20:57;;;;;;;10.13;7.60;;;12.10;99.90;;;;;;2082535;28;20243;-65
2023/08/05 04:22:00;;;;;;;10.27;7.47;;;12.00;99.90;;;;;;2085122;28;20275;-65
2023/08/05 04:23:01;;;;;;;11.60;7.28;;;12.10;99.90;;;;;;2085732;28;20192;-66
2023/08/05 04:24:01;;;;;;;9.30;8.05;;;12.20;99.90;;;;;;2085433;28;20180;-65
2023/08/05 04:25:02;;;;;;;10.60;7.37;;;12.20;99.90;;;;;;2093107;28;20652;-65
2023/08/05 04:26:04;;;;;;;9.63;7.20;;;12.20;99.90;;;;;;2091397;28;20433;-66
2023/08/05 04:27:05;;;;;;;12.80;8.15;;;12.20;99.90;;;;;;2090658;28;20264;-65
2023/08/05 04:28:08;;;;;;;10.60;7.17;;;12.20;99.90;;;;;;2090304;28;20179;-65
2023/08/05 04:29:10;;;;;;;11.27;7.80;;;12.20;99.90;;;;;;2084985;28;20804;-65
2023/08/05 04:30:11;;;;;;;11.65;7.85;;;12.20;99.90;;;;;;2093644;28;20254;-65
2023/08/05 04:31:13;;;;;;;10.40;7.72;;;12.20;99.90;;;;;;2090484;28;20189;-65
2023/08/05 04:32:15;;;;;;;10.32;7.75;;;12.20;99.90;;;;;;2091637;28;20289;-65
2023/08/05 04:33:16;;;;;;;10.85;7.65;;;12.20;99.90;;;;;;2090637;28;21204;-66
2023/08/05 04:34:16;;;;;;;8.57;7.33;;;12.20;99.90;;;;;;2089075;28;20590;-65
2023/08/05 04:35:17;;;;;;;9.60;7.67;;;12.20;99.90;;;;;;2071054;28;20598;-65
2023/08/05 04:36:18;;;;;;;10.23;7.00;;;12.20;99.90;;;;;;2071239;28;20324;-66
2023/08/05 04:37:20;;;;;;;9.57;8.20;;;12.20;99.90;;;;;;2076775;28;20661;-65
2023/08/05 04:38:21;;;;;;;9.27;7.75;;;12.20;99.90;;;;;;2076152;28;20670;-65
2023/08/05 04:39:22;;;;;;;10.83;7.40;;;12.20;99.90;;;;;;2085009;28;20255;-65
2023/08/05 04:40:22;;;;;;;9.07;6.90;;;12.20;99.90;;;;;;2079765;28;20921;-65
2023/08/05 04:41:23;;;;;;;9.53;7.27;;;12.20;99.90;;;;;;2080833;28;20235;-66
2023/08/05 04:42:24;;;;;;;12.53;6.80;;;12.20;99.90;;;;;;2077102;28;20233;-65
2023/08/05 04:43:24;;;;;;;10.73;7.70;;;12.30;99.90;;;;;;2082067;28;20224;-65
2023/08/05 04:44:25;;;;;;;9.00;7.10;;;12.40;99.90;;;;;;2077685;28;21021;-66
2023/08/05 04:45:26;;;;;;;10.37;7.07;;;12.40;99.90;;;;;;2079900;28;20319;-66
2023/08/05 04:46:26;;;;;;;9.47;7.87;;;12.40;99.90;;;;;;2086302;28;20270;-65
2023/08/05 04:47:27;;;;;;;12.60;7.03;;;12.30;99.90;;;;;;2082591;28;20228;-65
2023/08/05 04:48:28;;;;;;;8.57;6.70;;;12.30;99.90;;;;;;2079827;28;20227;-65
2023/08/05 04:49:28;;;;;;;7.73;6.50;;;12.40;99.90;;;;;;2079509;28;20366;-66
2023/08/05 04:50:29;;;;;;;11.27;7.70;;;12.40;99.90;;;;;;2080180;28;20710;-66
2023/08/05 04:51:30;;;;;;;10.50;6.83;;;12.30;99.90;;;;;;2078808;28;20456;-66
2023/08/05 04:52:31;;;;;;;10.37;7.43;;;12.40;99.90;;;;;;2084253;28;20473;-65
2023/08/05 04:53:32;;;;;;;8.70;7.20;;;12.40;99.90;;;;;;2093352;28;20574;-65
2023/08/05 04:54:39;;;;;;;9.23;6.93;;;12.40;99.90;;;;;;2085551;28;20591;-65
2023/08/05 04:55:40;;;;;;;10.73;7.28;;;12.40;99.90;;;;;;2086877;28;20223;-65
2023/08/05 04:56:41;;;;;;;8.30;6.57;;;12.40;99.90;;;;;;2093380;28;20702;-66
2023/08/05 04:57:43;;;;;;;11.73;7.30;;;12.40;99.90;;;;;;2091638;28;20321;-65
2023/08/05 04:58:43;;;;;;;9.75;7.43;;;12.40;99.90;;;;;;2086084;28;20254;-66
2023/08/05 04:59:44;;;;;;;9.90;7.33;;;12.50;99.90;;;;;;2077092;28;20224;-65
2023/08/05 05:00:46;;;;;;;8.63;6.37;;;12.50;99.90;;;;;;2080782;28;20219;-65
2023/08/05 05:01:47;;;;;;;11.88;6.65;;;12.60;99.90;;;;;;2090998;28;20223;-65
2023/08/05 05:02:48;;;;;;;11.47;6.60;;;12.70;99.90;;;;;;2084612;28;20233;-65
2023/08/05 05:03:51;;;;;;;7.63;6.40;;;12.80;99.90;;;;;;2077517;28;20282;-65
2023/08/05 05:04:51;;;;;;;9.68;6.68;;;12.80;99.90;;;;;;2080262;28;20275;-65
2023/08/05 05:05:52;;;;;;;8.73;6.70;;;12.80;99.90;;;;;;2092712;28;20693;-65
2023/08/05 05:06:53;;;;;;;11.27;7.70;;;12.90;99.90;;;;;;2093549;28;20229;-65
2023/08/05 05:07:54;;;;;;;8.02;6.13;;;12.90;99.90;;;;;;2091383;28;20218;-65
2023/08/05 05:08:55;;;;;;;8.95;7.22;;;12.80;99.90;;;;;;2098599;28;20229;-68
2023/08/05 05:09:56;;;;;;;8.23;6.37;;;12.70;99.90;;;;;;2092390;28;20188;-66
2023/08/05 05:10:57;;;;;;;9.27;6.87;;;12.70;99.90;;;;;;2093914;28;20226;-66
2023/08/05 05:12:00;;;;;;;11.37;6.57;;;12.70;99.90;;;;;;2100616;28;20228;-66
2023/08/05 05:13:00;;;;;;;8.43;6.47;;;12.70;99.90;;;;;;2085370;28;20196;-65
2023/08/05 05:14:01;;;;;;;8.47;6.53;;;12.80;99.90;;;;;;2091767;28;20188;-66
2023/08/05 05:15:02;;;;;;;8.17;6.50;;;12.80;99.90;;;;;;2092330;28;20286;-65
2023/08/05 05:16:04;;;;;;;9.13;6.70;;;12.80;99.90;;;;;;2084740;28;20195;-66
2023/08/05 05:17:04;;;;;;;12.48;6.82;;;12.70;99.90;;;;;;2091779;28;20187;-66
2023/08/05 05:18:05;;;;;;;7.57;5.70;;;12.60;99.90;;;;;;2090423;28;20294;-65